Time;durP1;ratioP1;P1;durP2;ratioP2;P2;SDS_P1;SDS_P2;PMS_P1;PMS_P2;Temp;Humidity;BMP_temperature;BMP_pressure;BME280_temperature;BME280_humidity;BME280_pressure;Samples;Min_cycle;Max_cycle;Signal;HPM_P1;HPM_P2
2022/06/15 00:00:10;127888.00;0.43;221.69;0.00;0.00;0.62;;;;;21.60;1.00;;;;;;2288329;60;1142;-85
2022/06/15 00:02:37;165239.00;0.55;286.07;23262.00;0.08;40.92;;;;;21.70;1.00;;;;;;2288330;60;1137;-85
2022/06/15 00:05:06;340475.00;1.13;587.49;139400.00;0.46;241.54;;;;;21.50;1.00;;;;;;2288284;60;1633;-85
2022/06/15 00:07:33;10608.00;0.04;19.00;0.00;0.00;0.62;;;;;21.20;1.00;;;;;;2287983;60;1305;-85
2022/06/15 00:10:00;83446.00;0.28;144.99;0.00;0.00;0.62;;;;;21.30;1.00;;;;;;2288365;60;2008;-86
2022/06/15 00:12:27;12305.00;0.04;21.94;0.00;0.00;0.62;;;;;21.30;1.00;;;;;;2288323;60;1184;-86
2022/06/15 00:14:55;0.00;0.00;0.62;0.00;0.00;0.62;;;;;21.40;1.00;;;;;;2288568;60;1314;-84
2022/06/15 00:17:22;144331.00;0.48;250.04;0.00;0.00;0.62;;;;;21.20;1.00;;;;;;2288661;60;1282;-85
2022/06/15 00:19:49;56944.00;0.19;99.19;0.00;0.00;0.62;;;;;21.20;1.00;;;;;;2288353;60;1216;-85
2022/06/15 00:22:17;31963.00;0.11;55.98;0.00;0.00;0.62;;;;;21.20;1.00;;;;;;2288268;60;1105;-84
2022/06/15 00:24:44;195252.00;0.65;337.75;0.00;0.00;0.62;;;;;21.10;1.00;;;;;;2289145;60;1684;-89
2022/06/15 00:27:11;121476.00;0.40;210.63;43008.00;0.14;75.09;;;;;21.20;1.00;;;;;;2288055;60;1377;-85
2022/06/15 00:29:38;194493.00;0.65;336.44;0.00;0.00;0.62;;;;;21.00;1.00;;;;;;2287776;60;1923;-83
2022/06/15 00:32:07;85673.00;0.29;148.84;14041.00;0.05;24.95;;;;;20.70;1.00;;;;;;2287883;60;1074;-85
2022/06/15 00:34:34;82784.00;0.28;143.85;0.00;0.00;0.62;;;;;20.70;1.00;;;;;;2288436;60;1150;-83
2022/06/15 00:37:02;0.00;0.00;0.62;0.00;0.00;0.62;;;;;20.90;1.00;;;;;;2288284;60;1300;-84
2022/06/15 00:39:30;31113.00;0.10;54.51;0.00;0.00;0.62;;;;;20.80;1.00;;;;;;2288212;60;1691;-83
2022/06/15 00:41:57;165244.00;0.55;286.07;61862.00;0.21;107.70;;;;;21.00;1.00;;;;;;2288128;60;1576;-84
2022/06/15 00:44:37;0.00;0.00;0.62;0.00;0.00;0.62;;;;;21.10;1.00;;;;;;2288181;60;1120;-85
2022/06/15 00:47:11;0.00;0.00;0.62;0.00;0.00;0.62;;;;;21.20;1.00;;;;;;2288296;60;1484;-85
2022/06/15 00:49:42;48927.00;0.16;85.33;0.00;0.00;0.62;;;;;21.00;1.00;;;;;;2288284;60;1935;-85
2022/06/15 00:52:15;22986.00;0.08;40.44;0.00;0.00;0.62;;;;;20.90;1.00;;;;;;2287929;60;936;-84
2022/06/15 00:54:46;207434.00;0.69;358.72;24841.00;0.08;43.65;;;;;21.00;1.00;;;;;;2287751;60;1147;-85
2022/06/15 00:57:13;0.00;0.00;0.62;0.00;0.00;0.62;;;;;20.90;1.00;;;;;;2288375;60;1721;-87
2022/06/15 00:59:49;56736.00;0.19;98.83;0.00;0.00;0.62;;;;;20.80;1.00;;;;;;2289000;60;1589;-87
2022/06/15 01:02:16;0.00;0.00;0.62;0.00;0.00;0.62;;;;;20.70;1.00;;;;;;2289062;60;955;-88
2022/06/15 01:04:48;118453.00;0.39;205.41;21520.00;0.07;37.90;;;;;21.10;1.00;;;;;;2289026;60;1119;-86
2022/06/15 01:07:36;81159.00;0.27;141.04;0.00;0.00;0.62;;;;;20.80;1.00;;;;;;2288730;60;1432;-86
2022/06/15 01:10:14;0.00;0.00;0.62;0.00;0.00;0.62;;;;;20.80;1.00;;;;;;2288181;60;2009;-85
2022/06/15 01:12:52;134513.00;0.45;233.11;0.00;0.00;0.62;;;;;20.90;1.00;;;;;;2287524;60;1070;-85
2022/06/15 01:15:32;0.00;0.00;0.62;0.00;0.00;0.62;;;;;20.70;1.00;;;;;;2287936;60;1722;-85
2022/06/15 01:18:15;33831.00;0.11;59.21;0.00;0.00;0.62;;;;;20.80;1.00;;;;;;2288000;60;1468;-85
2022/06/15 01:21:03;15825.00;0.05;28.04;0.00;0.00;0.62;;;;;20.90;1.00;;;;;;2288734;60;1698;-86
2022/06/15 01:24:11;0.00;0.00;0.62;0.00;0.00;0.62;;;;;20.70;1.00;;;;;;2288989;60;1042;-85
2022/06/15 01:27:11;0.00;0.00;0.62;0.00;0.00;0.62;;;;;20.60;1.00;;;;;;2288476;60;1388;-86
2022/06/15 01:30:09;0.00;0.00;0.62;0.00;0.00;0.62;;;;;20.90;1.00;;;;;;2288001;60;2014;-85
2022/06/15 01:32:43;96864.00;0.32;168.16;0.00;0.00;0.62;;;;;20.90;1.00;;;;;;2288114;60;1111;-85
2022/06/15 01:35:20;249409.00;0.83;430.93;24870.00;0.08;43.70;;;;;21.10;1.00;;;;;;2288055;60;1614;-85
2022/06/15 01:37:54;13195.00;0.04;23.48;0.00;0.00;0.62;;;;;21.10;1.00;;;;;;2288003;60;1504;-86
2022/06/15 01:40:31;16633.00;0.06;29.44;0.00;0.00;0.62;;;;;21.10;1.00;;;;;;2287910;60;1219;-85
2022/06/15 01:43:04;210950.00;0.70;364.77;0.00;0.00;0.62;;;;;21.10;1.00;;;;;;2288095;60;1064;-85
2022/06/15 01:45:36;2792.00;0.01;5.46;0.00;0.00;0.62;;;;;20.90;1.00;;;;;;2288098;60;1167;-85
2022/06/15 01:48:07;168410.00;0.56;291.53;0.00;0.00;0.62;;;;;20.90;1.00;;;;;;2288034;60;1503;-85
2022/06/15 01:50:39;166367.00;0.55;288.01;73047.00;0.24;127.03;;;;;20.90;1.00;;;;;;2287994;60;2010;-85
2022/06/15 01:53:19;208760.00;0.70;361.00;72992.00;0.24;126.93;;;;;20.80;1.00;;;;;;2287963;60;1130;-85
2022/06/15 01:55:50;292774.00;0.98;505.50;105762.00;0.35;183.52;;;;;20.80;1.00;;;;;;2287922;60;1114;-85
2022/06/15 01:58:23;183586.00;0.61;317.66;69090.00;0.23;120.19;;;;;20.60;1.00;;;;;;2288042;60;1703;-85
2022/06/15 02:00:59;265989.00;0.89;459.45;73508.00;0.25;127.82;;;;;20.60;1.00;;;;;;2287851;60;1186;-85
2022/06/15 02:03:35;164905.00;0.55;285.49;74360.00;0.25;129.29;;;;;20.70;1.00;;;;;;2287783;60;2015;-86
2022/06/15 02:06:06;170714.00;0.57;295.50;66212.00;0.22;115.21;;;;;20.70;1.00;;;;;;2287916;60;1441;-85
2022/06/15 02:08:42;210065.00;0.70;363.25;73808.00;0.25;128.34;;;;;20.50;1.00;;;;;;2287782;60;1989;-86
2022/06/15 02:11:15;227190.00;0.76;392.71;75630.00;0.25;131.49;;;;;20.40;1.00;;;;;;2288062;60;1053;-85
2022/06/15 02:13:47;98066.00;0.33;170.23;0.00;0.00;0.62;;;;;20.60;1.00;;;;;;2287791;60;2313;-86
2022/06/15 02:16:22;188337.00;0.63;325.85;75866.00;0.25;131.90;;;;;20.70;1.00;;;;;;2287632;60;1401;-85
2022/06/15 02:18:52;191290.00;0.64;330.93;77037.00;0.26;133.92;;;;;20.60;1.00;;;;;;2288076;60;1709;-87
2022/06/15 02:21:21;89337.00;0.30;155.16;0.00;0.00;0.62;;;;;20.60;1.00;;;;;;2288368;60;1267;-85
2022/06/15 02:23:52;35563.00;0.12;62.21;0.00;0.00;0.62;;;;;20.60;1.00;;;;;;2287772;60;1172;-85
2022/06/15 02:26:20;0.00;0.00;0.62;0.00;0.00;0.62;;;;;20.80;1.00;;;;;;2287555;60;1409;-85
2022/06/15 02:28:51;0.00;0.00;0.62;0.00;0.00;0.62;;;;;20.90;1.00;;;;;;2287707;60;2016;-84
2022/06/15 02:31:20;7355.00;0.02;13.37;0.00;0.00;0.62;;;;;20.90;1.00;;;;;;2287696;60;1157;-85
2022/06/15 02:33:51;0.00;0.00;0.62;0.00;0.00;0.62;;;;;20.80;1.00;;;;;;2287589;60;1064;-85
2022/06/15 02:36:18;0.00;0.00;0.62;0.00;0.00;0.62;;;;;20.90;1.00;;;;;;2287597;60;1352;-86
2022/06/15 02:38:47;9850.00;0.03;17.69;0.00;0.00;0.62;;;;;20.90;1.00;;;;;;2287805;60;1157;-86
2022/06/15 02:41:14;62362.00;0.21;108.56;0.00;0.00;0.62;;;;;20.90;1.00;;;;;;2287640;60;1491;-86
2022/06/15 02:43:45;93723.00;0.31;162.74;0.00;0.00;0.62;;;;;20.40;1.00;;;;;;2287690;60;1178;-85
2022/06/15 02:46:16;139483.00;0.46;241.68;40990.00;0.14;71.60;;;;;20.10;1.00;;;;;;2287495;60;1665;-85
2022/06/15 02:48:45;109944.00;0.37;190.73;0.00;0.00;0.62;;;;;20.10;1.00;;;;;;2287632;60;2009;-85
2022/06/15 02:51:20;240065.00;0.80;414.86;78597.00;0.26;136.61;;;;;20.10;1.00;;;;;;2287976;60;1170;-85
2022/06/15 02:53:50;15982.00;0.05;28.31;0.00;0.00;0.62;;;;;20.00;1.00;;;;;;2287750;60;1114;-85
2022/06/15 02:56:19;189993.00;0.63;328.70;7565.00;0.03;13.73;;;;;19.90;1.00;;;;;;2287803;60;1565;-84
2022/06/15 02:58:49;82047.00;0.27;142.57;0.00;0.00;0.62;;;;;19.70;1.00;;;;;;2288117;60;1724;-84
2022/06/15 03:01:17;0.00;0.00;0.62;0.00;0.00;0.62;;;;;19.60;1.00;;;;;;2287976;60;1118;-83
2022/06/15 03:03:47;0.00;0.00;0.62;0.00;0.00;0.62;;;;;19.30;1.00;;;;;;2287991;60;1149;-84
2022/06/15 03:06:16;33210.00;0.11;58.14;0.00;0.00;0.62;;;;;19.10;1.00;;;;;;2287684;60;1437;-84
2022/06/15 03:08:43;20721.00;0.07;36.52;0.00;0.00;0.62;;;;;19.60;1.00;;;;;;2287907;60;1195;-84
2022/06/15 03:11:12;9404.00;0.03;16.92;0.00;0.00;0.62;;;;;19.70;1.00;;;;;;2287652;60;1062;-85
2022/06/15 03:13:39;57538.00;0.19;100.22;0.00;0.00;0.62;;;;;20.10;1.00;;;;;;2287847;60;1151;-84
2022/06/15 03:16:06;50268.00;0.17;87.65;0.00;0.00;0.62;;;;;20.20;1.00;;;;;;2287566;60;1523;-85
2022/06/15 03:18:34;63194.00;0.21;110.00;0.00;0.00;0.62;;;;;20.30;1.00;;;;;;2287821;60;1781;-84
2022/06/15 03:21:03;24719.00;0.08;43.44;0.00;0.00;0.62;;;;;20.20;1.00;;;;;;2287632;60;940;-84
2022/06/15 03:23:31;71849.00;0.24;124.96;0.00;0.00;0.62;;;;;20.10;1.00;;;;;;2286812;60;1234;-83
2022/06/15 03:25:59;53388.00;0.18;93.05;0.00;0.00;0.62;;;;;19.00;1.00;;;;;;2286524;60;1359;-84
2022/06/15 03:28:27;51683.00;0.17;90.10;0.00;0.00;0.62;;;;;17.70;1.00;;;;;;2287226;60;1185;-84
2022/06/15 03:30:54;29022.00;0.10;50.89;0.00;0.00;0.62;;;;;17.10;1.00;;;;;;2288352;60;2010;-85
2022/06/15 03:33:21;0.00;0.00;0.62;0.00;0.00;0.62;;;;;16.90;1.00;;;;;;2287996;60;1107;-84
2022/06/15 03:35:49;423641.00;1.41;730.45;104590.00;0.35;181.49;;;;;16.90;1.00;;;;;;2287951;60;1124;-85
2022/06/15 03:38:17;0.00;0.00;0.62;0.00;0.00;0.62;;;;;16.80;1.00;;;;;;2287955;60;1134;-85
2022/06/15 03:40:46;0.00;0.00;0.62;0.00;0.00;0.62;;;;;17.30;1.00;;;;;;2288202;60;1146;-87
2022/06/15 03:43:15;0.00;0.00;0.62;0.00;0.00;0.62;;;;;17.80;1.00;;;;;;2288064;60;1139;-85
2022/06/15 03:45:43;83708.00;0.28;145.44;0.00;0.00;0.62;;;;;17.70;1.00;;;;;;2288119;60;1221;-87
2022/06/15 03:48:10;86029.00;0.29;149.45;0.00;0.00;0.62;;;;;18.00;1.00;;;;;;2288278;60;1203;-86
2022/06/15 03:50:37;8814.00;0.03;15.89;0.00;0.00;0.62;;;;;18.70;1.00;;;;;;2287877;60;1996;-85
2022/06/15 03:53:06;99354.00;0.33;172.46;0.00;0.00;0.62;;;;;18.50;1.00;;;;;;2288317;60;1247;-85
2022/06/15 03:55:36;31193.00;0.10;54.65;0.00;0.00;0.62;;;;;18.50;1.00;;;;;;2287948;60;1123;-85
2022/06/15 03:58:03;294608.00;0.98;508.65;73008.00;0.24;126.96;;;;;18.40;1.00;;;;;;2287736;60;1347;-84
2022/06/15 04:00:32;393955.00;1.31;679.41;60520.00;0.20;105.38;;;;;17.70;1.00;;;;;;2288086;60;1097;-83
2022/06/15 04:02:59;117167.00;0.39;203.20;11163.00;0.04;19.96;;;;;17.60;1.00;;;;;;2287914;60;1103;-85
2022/06/15 04:05:32;68870.00;0.23;119.81;0.00;0.00;0.62;;;;;17.30;1.00;;;;;;2287734;60;1085;-83
2022/06/15 04:10:44;170316.00;0.57;294.81;76409.00;0.25;132.83;;;;;16.90;1.00;;;;;;2288174;60;1917;-84
2022/06/15 04:13:12;236215.00;0.79;408.24;77178.00;0.26;134.16;;;;;17.10;1.00;;;;;;2287927;60;1099;-84
2022/06/15 04:15:39;95416.00;0.32;165.66;0.00;0.00;0.62;;;;;17.00;1.00;;;;;;2288052;60;1640;-83
2022/06/15 04:18:06;36803.00;0.12;64.36;0.00;0.00;0.62;;;;;17.00;1.00;;;;;;2288039;60;1346;-84
2022/06/15 04:20:33;88763.00;0.30;154.17;0.00;0.00;0.62;;;;;17.10;1.00;;;;;;2288760;60;1085;-85
2022/06/15 04:23:00;16990.00;0.06;30.06;0.00;0.00;0.62;;;;;17.50;1.00;;;;;;2288777;60;1142;-84
2022/06/15 04:25:27;11678.00;0.04;20.86;0.00;0.00;0.62;;;;;18.00;1.00;;;;;;2288419;60;1082;-84
2022/06/15 04:27:57;145529.00;0.49;252.10;0.00;0.00;0.62;;;;;17.60;1.00;;;;;;2288526;60;1398;-84
2022/06/15 04:30:24;64471.00;0.21;112.21;0.00;0.00;0.62;;;;;17.30;1.00;;;;;;2288538;60;1997;-84
2022/06/15 04:32:51;21654.00;0.07;38.13;0.00;0.00;0.62;;;;;17.40;1.00;;;;;;2288211;60;2114;-83
2022/06/15 04:35:18;313841.00;1.05;541.71;103615.00;0.35;179.81;;;;;17.50;1.00;;;;;;2288435;60;1146;-83
2022/06/15 04:37:45;296010.00;0.99;511.06;20265.00;0.07;35.73;;;;;17.50;1.00;;;;;;2288217;60;1398;-83
2022/06/15 04:40:13;252396.00;0.84;436.07;0.00;0.00;0.62;;;;;17.40;1.00;;;;;;2289102;60;1131;-87
2022/06/15 04:42:40;86426.00;0.29;150.14;0.00;0.00;0.62;;;;;17.30;1.00;;;;;;2288652;60;2313;-84
2022/06/15 04:45:11;22827.00;0.08;40.17;0.00;0.00;0.62;;;;;17.30;1.00;;;;;;2288526;60;1201;-84
2022/06/15 04:47:38;103432.00;0.34;179.50;0.00;0.00;0.62;;;;;17.60;1.00;;;;;;2288638;60;1444;-85
2022/06/15 04:50:07;0.00;0.00;0.62;0.00;0.00;0.62;;;;;17.90;1.00;;;;;;2288709;60;1923;-86
2022/06/15 04:52:34;0.00;0.00;0.62;0.00;0.00;0.62;;;;;18.50;1.00;;;;;;2288922;60;1166;-84
2022/06/15 04:55:01;0.00;0.00;0.62;0.00;0.00;0.62;;;;;19.10;1.00;;;;;;2288967;60;1099;-87
2022/06/15 04:57:28;84432.00;0.28;146.69;0.00;0.00;0.62;;;;;19.70;1.00;;;;;;2289027;60;1370;-87
2022/06/15 04:59:55;76095.00;0.25;132.29;0.00;0.00;0.62;;;;;20.10;1.00;;;;;;2289060;60;1006;-88
2022/06/15 05:02:23;110670.00;0.37;191.99;0.00;0.00;0.62;;;;;20.40;1.00;;;;;;2288624;60;1058;-84
2022/06/15 05:04:50;43476.00;0.14;75.90;0.00;0.00;0.62;;;;;20.50;1.00;;;;;;2288765;60;1082;-85
2022/06/15 05:07:17;0.00;0.00;0.62;0.00;0.00;0.62;;;;;20.20;1.00;;;;;;2288606;60;1413;-85
2022/06/15 05:09:47;0.00;0.00;0.62;0.00;0.00;0.62;;;;;20.50;1.00;;;;;;2288593;60;2007;-85
2022/06/15 05:12:14;0.00;0.00;0.62;0.00;0.00;0.62;;;;;20.80;1.00;;;;;;2288570;60;1126;-84
2022/06/15 05:14:41;51118.00;0.17;89.12;0.00;0.00;0.62;;;;;20.90;1.00;;;;;;2288627;60;1166;-85
2022/06/15 05:17:08;117664.00;0.39;204.05;0.00;0.00;0.62;;;;;21.10;1.00;;;;;;2288539;60;1395;-86
2022/06/15 05:19:36;0.00;0.00;0.62;0.00;0.00;0.62;;;;;21.10;1.00;;;;;;2288539;60;1150;-85
2022/06/15 05:22:03;38413.00;0.13;67.14;0.00;0.00;0.62;;;;;21.20;1.00;;;;;;2288654;60;2159;-84
2022/06/15 05:24:30;112125.00;0.37;194.50;38999.00;0.13;68.16;;;;;21.30;1.00;;;;;;2288587;60;1125;-85
2022/06/15 05:26:57;0.00;0.00;0.62;0.00;0.00;0.62;;;;;21.60;1.00;;;;;;2288373;60;1706;-87
2022/06/15 05:29:25;0.00;0.00;0.62;0.00;0.00;0.62;;;;;21.70;1.00;;;;;;2288344;60;1020;-86
2022/06/15 05:31:51;0.00;0.00;0.62;0.00;0.00;0.62;;;;;21.90;1.00;;;;;;2287978;60;2012;-86
2022/06/15 05:34:19;140147.00;0.47;242.82;7499.00;0.02;13.62;;;;;22.20;1.00;;;;;;2288364;60;1105;-85
2022/06/15 05:36:47;144698.00;0.48;250.67;0.00;0.00;0.62;;;;;22.40;1.00;;;;;;2288440;60;1269;-87
2022/06/15 05:39:14;8163.00;0.03;14.77;0.00;0.00;0.62;;;;;22.60;1.00;;;;;;2289009;60;1640;-85
2022/06/15 05:41:41;52832.00;0.18;92.08;0.00;0.00;0.62;;;;;23.70;1.00;;;;;;2288969;60;1175;-87
2022/06/15 05:44:08;82621.00;0.28;143.56;0.00;0.00;0.62;;;;;25.40;1.00;;;;;;2288948;60;1113;-85
2022/06/15 05:46:39;40197.00;0.13;70.23;0.00;0.00;0.62;;;;;27.40;1.00;;;;;;2288603;60;1375;-85
2022/06/15 05:49:07;0.00;0.00;0.62;0.00;0.00;0.62;;;;;28.50;1.00;;;;;;2288291;60;1078;-86
2022/06/15 05:51:34;206031.00;0.69;356.30;0.00;0.00;0.62;;;;;29.70;1.00;;;;;;2287723;60;2018;-86
2022/06/15 05:54:02;57291.00;0.19;99.79;0.00;0.00;0.62;;;;;30.30;1.00;;;;;;2287458;60;1148;-86
2022/06/15 05:56:29;38794.00;0.13;67.80;0.00;0.00;0.62;;;;;30.00;1.00;;;;;;2287879;60;1381;-85
2022/06/15 05:58:56;50996.00;0.17;88.91;0.00;0.00;0.62;;;;;29.60;1.00;;;;;;2287696;60;1266;-85
2022/06/15 06:01:26;17931.00;0.06;31.69;0.00;0.00;0.62;;;;;30.10;1.00;;;;;;2287566;60;1161;-86
2022/06/15 06:03:54;19766.00;0.07;34.86;0.00;0.00;0.62;;;;;31.10;1.00;;;;;;2287788;60;1194;-86
2022/06/15 06:06:21;147650.00;0.49;255.76;76739.00;0.26;133.40;;;;;31.50;1.00;;;;;;2287512;60;1383;-86
2022/06/15 06:08:48;0.00;0.00;0.62;0.00;0.00;0.62;;;;;31.90;1.00;;;;;;2288106;60;1162;-86
2022/06/15 06:11:17;14657.00;0.05;26.02;0.00;0.00;0.62;;;;;31.50;1.00;;;;;;2287696;60;2002;-85
2022/06/15 06:13:44;65749.00;0.22;114.41;0.00;0.00;0.62;;;;;32.10;1.00;;;;;;2287864;60;1212;-86
2022/06/15 06:16:12;44775.00;0.15;78.15;0.00;0.00;0.62;;;;;31.20;1.00;;;;;;2287920;60;1382;-87
2022/06/15 06:18:39;0.00;0.00;0.62;0.00;0.00;0.62;;;;;31.50;1.00;;;;;;2287885;60;1197;-87
2022/06/15 06:21:06;57204.00;0.19;99.64;0.00;0.00;0.62;;;;;32.40;1.00;;;;;;2288021;60;1067;-84
2022/06/15 06:23:33;51370.00;0.17;89.56;0.00;0.00;0.62;;;;;33.30;1.00;;;;;;2286737;60;1170;-84
2022/06/15 06:26:02;12055.00;0.04;21.51;0.00;0.00;0.62;;;;;34.60;1.00;;;;;;2286989;60;1283;-86
2022/06/15 06:28:32;33941.00;0.11;59.40;0.00;0.00;0.62;;;;;35.30;1.00;;;;;;2286623;60;1190;-86
2022/06/15 06:31:02;85994.00;0.29;149.39;0.00;0.00;0.62;;;;;35.80;1.00;;;;;;2286384;60;2029;-84
2022/06/15 06:33:31;47917.00;0.16;83.58;0.00;0.00;0.62;;;;;36.00;1.00;;;;;;2287653;60;1280;-86
2022/06/15 06:36:01;0.00;0.00;0.62;0.00;0.00;0.62;;;;;35.60;1.00;;;;;;2287573;60;1423;-85
2022/06/15 06:38:28;0.00;0.00;0.62;0.00;0.00;0.62;;;;;35.20;1.00;;;;;;2287037;60;1115;-86
2022/06/15 06:40:57;319174.00;1.06;550.88;95527.00;0.32;165.85;;;;;36.40;1.00;;;;;;2286725;60;1241;-86
2022/06/15 06:43:24;50618.00;0.17;88.25;0.00;0.00;0.62;;;;;36.80;1.00;;;;;;2286340;60;1690;-86
2022/06/15 06:45:52;0.00;0.00;0.62;0.00;0.00;0.62;;;;;37.00;1.00;;;;;;2286245;60;1352;-84
2022/06/15 06:48:19;0.00;0.00;0.62;0.00;0.00;0.62;;;;;36.60;1.00;;;;;;2286633;60;1136;-86
2022/06/15 06:50:46;96928.00;0.32;168.27;0.00;0.00;0.62;;;;;36.90;1.00;;;;;;2286902;60;2000;-85
2022/06/15 06:53:15;195108.00;0.65;337.50;24121.00;0.08;42.41;;;;;36.90;1.00;;;;;;2286464;60;1115;-86
2022/06/15 06:55:42;305526.00;1.02;527.42;71909.00;0.24;125.06;;;;;37.80;1.00;;;;;;2286287;60;1146;-85
2022/06/15 06:58:09;29106.00;0.10;51.04;0.00;0.00;0.62;;;;;37.50;1.00;;;;;;2286134;60;1298;-86
2022/06/15 07:00:37;0.00;0.00;0.62;0.00;0.00;0.62;;;;;37.50;1.00;;;;;;2286561;60;1146;-86
2022/06/15 07:03:06;13662.00;0.05;24.29;0.00;0.00;0.62;;;;;38.20;1.00;;;;;;2286571;60;1227;-85
2022/06/15 07:05:34;207753.00;0.69;359.27;661.00;0.00;1.77;;;;;37.80;1.00;;;;;;2286771;60;1225;-86
2022/06/15 07:08:01;0.00;0.00;0.62;0.00;0.00;0.62;;;;;38.00;1.00;;;;;;2286387;60;2190;-85
2022/06/15 07:10:29;11020.00;0.04;19.72;0.00;0.00;0.62;;;;;37.40;1.00;;;;;;2286450;60;2008;-86
2022/06/15 07:12:55;12048.00;0.04;21.50;0.00;0.00;0.62;;;;;37.60;1.00;;;;;;2286970;60;1158;-85
2022/06/15 07:15:23;14993.00;0.05;26.60;0.00;0.00;0.62;;;;;38.20;1.00;;;;;;2286621;60;1119;-86
2022/06/15 07:17:49;75002.00;0.25;130.40;0.00;0.00;0.62;;;;;38.30;1.00;;;;;;2286882;60;1345;-86
2022/06/15 07:20:18;140699.00;0.47;243.78;42737.00;0.14;74.62;;;;;37.90;1.00;;;;;;2287703;60;1095;-86
2022/06/15 07:22:45;197041.00;0.66;340.83;21739.00;0.07;38.28;;;;;37.80;1.00;;;;;;2287705;60;1278;-87
2022/06/15 07:25:12;28443.00;0.09;49.89;0.00;0.00;0.62;;;;;38.50;1.00;;;;;;2287848;60;1692;-86
2022/06/15 07:27:40;245991.00;0.82;425.06;113961.00;0.38;197.66;;;;;39.00;1.00;;;;;;2287719;60;1279;-86
2022/06/15 07:30:13;98019.00;0.33;170.15;0.00;0.00;0.62;;;;;39.50;1.00;;;;;;2287631;60;1992;-86
2022/06/15 07:32:42;66060.00;0.22;114.95;0.00;0.00;0.62;;;;;39.10;1.00;;;;;;2287533;60;2353;-86
2022/06/15 07:35:14;81799.00;0.27;142.14;0.00;0.00;0.62;;;;;39.00;1.00;;;;;;2288849;60;1704;-88
2022/06/15 07:37:43;125263.00;0.42;217.16;0.00;0.00;0.62;;;;;38.90;1.00;;;;;;2288611;60;1383;-87
2022/06/15 07:40:11;164047.00;0.55;284.01;0.00;0.00;0.62;;;;;39.10;1.00;;;;;;2288638;60;1135;-89
2022/06/15 07:42:38;84506.00;0.28;146.82;0.00;0.00;0.62;;;;;39.30;1.00;;;;;;2288556;60;1721;-87
2022/06/15 07:45:06;513847.00;1.71;885.67;0.00;0.00;0.62;;;;;38.10;1.00;;;;;;2288578;60;1107;-87
2022/06/15 07:50:18;51921.00;0.17;90.51;0.00;0.00;0.62;;;;;38.00;1.00;;;;;;2288604;60;1988;-88
2022/06/15 07:52:49;239863.00;0.80;414.52;20538.00;0.07;36.20;;;;;38.80;1.00;;;;;;2288629;60;1125;-87
2022/06/15 07:55:20;0.00;0.00;0.62;0.00;0.00;0.62;;;;;37.80;1.00;;;;;;2289526;60;956;-86
2022/06/15 07:57:47;142142.00;0.47;246.26;0.00;0.00;0.62;;;;;37.10;1.00;;;;;;2289183;60;1302;-87
2022/06/15 08:00:15;98286.00;0.33;170.61;0.00;0.00;0.62;;;;;38.30;1.00;;;;;;2289656;60;1049;-87
2022/06/15 08:02:42;21292.00;0.07;37.51;0.00;0.00;0.62;;;;;38.00;1.00;;;;;;2289667;60;1001;-87
2022/06/15 08:05:11;42318.00;0.14;73.90;0.00;0.00;0.62;;;;;37.70;1.00;;;;;;2289377;60;1053;-86
2022/06/15 08:07:38;80790.00;0.27;140.40;0.00;0.00;0.62;;;;;37.80;1.00;;;;;;2289372;60;1371;-88
2022/06/15 08:10:07;178279.00;0.59;308.53;28799.00;0.10;50.50;;;;;37.20;1.00;;;;;;2289401;60;1552;-88
2022/06/15 08:12:34;17762.00;0.06;31.39;0.00;0.00;0.62;;;;;36.80;1.00;;;;;;2289239;60;1931;-87
2022/06/15 08:15:03;23585.00;0.08;41.48;0.00;0.00;0.62;;;;;36.60;1.00;;;;;;2289177;60;1125;-86
2022/06/15 08:17:34;20565.00;0.07;36.25;0.00;0.00;0.62;;;;;38.00;1.00;;;;;;2289075;60;1368;-87
2022/06/15 08:20:08;214928.00;0.72;371.62;69545.00;0.23;120.97;;;;;38.70;1.00;;;;;;2289364;60;1143;-87
2022/06/15 08:22:39;0.00;0.00;0.62;0.00;0.00;0.62;;;;;38.70;1.00;;;;;;2289448;60;1066;-88
2022/06/15 08:25:12;185322.00;0.62;320.65;0.00;0.00;0.62;;;;;38.40;1.00;;;;;;2289395;60;1663;-87
2022/06/15 08:27:39;216265.00;0.72;373.92;0.00;0.00;0.62;;;;;38.00;1.00;;;;;;2289012;60;1367;-87
2022/06/15 08:30:10;573900.00;1.91;989.17;8003.00;0.03;14.49;;;;;37.50;1.00;;;;;;2289168;60;1124;-88
2022/06/15 08:32:38;288957.00;0.96;498.94;61007.00;0.20;106.22;;;;;38.30;1.00;;;;;;2289427;60;1921;-86
2022/06/15 08:35:06;25200.00;0.08;44.27;0.00;0.00;0.62;;;;;37.70;1.00;;;;;;2289488;60;1070;-87
2022/06/15 08:37:33;27109.00;0.09;47.58;0.00;0.00;0.62;;;;;37.80;1.00;;;;;;2289392;60;1288;-86
2022/06/15 08:40:00;0.00;0.00;0.62;0.00;0.00;0.62;;;;;37.60;1.00;;;;;;2289380;60;1072;-86
2022/06/15 08:42:40;21413.00;0.07;37.72;0.00;0.00;0.62;;;;;37.50;1.00;;;;;;2289294;60;1062;-86
2022/06/15 08:45:16;242598.00;0.81;419.22;0.00;0.00;0.62;;;;;37.70;1.00;;;;;;2289338;60;1066;-87
2022/06/15 08:48:11;23380.00;0.08;41.12;0.00;0.00;0.62;;;;;37.30;1.00;;;;;;2289223;60;1437;-87
2022/06/15 08:50:48;400002.00;1.33;689.81;16148.00;0.05;28.60;;;;;37.50;1.00;;;;;;2289011;60;1926;-87
2022/06/15 08:53:18;516048.00;1.72;889.46;100689.00;0.34;174.76;;;;;38.20;1.00;;;;;;2289208;60;1745;-86
2022/06/15 08:55:50;806333.00;2.69;1392.17;46740.00;0.16;81.55;;;;;38.30;1.00;;;;;;2289180;60;1112;-86
2022/06/15 08:58:27;488574.00;1.63;842.15;0.00;0.00;0.62;;;;;37.30;1.00;;;;;;2289135;60;975;-88
2022/06/15 09:00:58;509749.00;1.70;878.61;0.00;0.00;0.62;;;;;36.90;1.00;;;;;;2289080;60;1081;-87
2022/06/15 09:03:35;750069.00;2.50;1294.18;12409.00;0.04;22.12;;;;;37.40;1.00;;;;;;2289117;60;1121;-88
2022/06/15 09:06:16;1111275.00;3.70;1930.60;58985.00;0.20;102.72;;;;;37.40;1.00;;;;;;2289032;60;1474;-87
2022/06/15 09:09:10;1608633.00;5.36;2849.25;85858.00;0.29;149.16;;;;;37.60;1.00;;;;;;2289129;60;1137;-88
2022/06/15 09:14:51;347273.00;1.16;599.17;30334.00;0.10;53.16;;;;;37.20;1.00;;;;;;2288864;60;1278;-89
2022/06/15 09:17:25;1570784.00;5.24;2777.03;194773.00;0.65;336.93;;;;;36.50;1.00;;;;;;2289119;60;1371;-88
2022/06/15 09:19:59;198071.00;0.66;342.60;58538.00;0.20;101.95;;;;;36.30;1.00;;;;;;2289136;60;1041;-87
2022/06/15 09:22:33;229275.00;0.76;396.30;45768.00;0.15;79.87;;;;;35.50;1.00;;;;;;2289161;60;1133;-87
2022/06/15 09:25:08;20551.00;0.07;36.22;0.00;0.00;0.62;;;;;35.10;1.00;;;;;;2289212;60;1013;-87
2022/06/15 09:27:42;132734.00;0.44;230.04;0.00;0.00;0.62;;;;;35.20;1.00;;;;;;2289182;60;1441;-85
2022/06/15 09:30:16;149810.00;0.50;259.48;74.00;0.00;0.75;;;;;34.20;1.00;;;;;;2289119;60;1101;-86
2022/06/15 09:32:58;59857.00;0.20;104.23;0.00;0.00;0.62;;;;;33.80;1.00;;;;;;2289056;60;1994;-87
2022/06/15 09:35:32;505709.00;1.69;871.65;6609.00;0.02;12.07;;;;;33.70;1.00;;;;;;2288798;60;1551;-85
2022/06/15 09:38:02;288744.00;0.96;498.57;41704.00;0.14;72.84;;;;;32.70;1.00;;;;;;2288837;60;1478;-85
2022/06/15 09:40:38;445160.00;1.48;767.46;0.00;0.00;0.62;;;;;32.50;1.00;;;;;;2288816;60;1075;-87
2022/06/15 09:43:15;534622.00;1.78;921.46;19948.00;0.07;35.18;;;;;32.40;1.00;;;;;;2288736;60;1675;-88
2022/06/15 09:45:51;922702.00;3.08;1596.03;120449.00;0.40;208.86;;;;;32.60;1.00;;;;;;2288952;60;978;-87
2022/06/15 09:48:29;258925.00;0.86;447.30;0.00;0.00;0.62;;;;;32.70;1.00;;;;;;2289042;60;1642;-88
2022/06/15 09:51:04;117192.00;0.39;203.24;0.00;0.00;0.62;;;;;32.90;1.00;;;;;;2289099;60;1926;-88
2022/06/15 09:53:43;8153.00;0.03;14.75;0.00;0.00;0.62;;;;;33.70;1.00;;;;;;2288929;60;1038;-87
2022/06/15 09:56:14;427042.00;1.42;736.30;50749.00;0.17;88.48;;;;;34.30;1.00;;;;;;2289085;60;1481;-87
2022/06/15 09:58:45;232760.00;0.78;402.30;24684.00;0.08;43.38;;;;;34.40;1.00;;;;;;2288799;60;1726;-85
2022/06/15 10:01:15;753989.00;2.51;1300.99;44136.00;0.15;77.04;;;;;34.40;1.00;;;;;;2310714;40;3579;-86
2022/06/15 10:03:46;550803.00;1.84;949.34;0.00;0.00;0.62;;;;;33.40;1.00;;;;;;2284645;60;1578;-88
2022/06/15 10:06:22;751927.00;2.51;1297.41;67451.00;0.22;117.36;;;;;33.60;1.00;;;;;;2284692;60;1570;-88
2022/06/15 10:08:50;688313.00;2.29;1186.98;0.00;0.00;0.62;;;;;33.70;1.00;;;;;;2284658;60;1595;-89
2022/06/15 10:11:19;1063551.00;3.55;1845.36;100703.00;0.34;174.79;;;;;33.50;1.00;;;;;;2284924;60;2004;-89
2022/06/15 10:13:47;1213176.00;4.04;2114.06;187653.00;0.63;324.67;;;;;33.00;1.00;;;;;;2284578;60;955;-90
2022/06/15 10:18:49;1516138.00;5.05;2673.52;33164.00;0.11;58.06;;;;;32.60;1.00;;;;;;2290073;60;1255;-89
2022/06/15 10:21:22;230331.00;0.77;398.12;26297.00;0.09;46.17;;;;;32.20;1.00;;;;;;2288675;60;1846;-90
2022/06/15 10:23:56;474945.00;1.58;818.70;82221.00;0.27;142.87;;;;;32.30;1.00;;;;;;2288713;60;1032;-89
2022/06/15 10:26:28;326764.00;1.09;563.92;2800.00;0.01;5.47;;;;;32.60;1.00;;;;;;2288412;60;1641;-90